sensor_id;sensor_type;location;lat;lon;timestamp;P1;durP1;ratioP1;P2;durP2;ratioP2
51010;SDS011;37038;50.182;8.624;2022-09-09T00:04:42;6.78;;;2.50;;
51010;SDS011;37038;50.182;8.624;2022-09-09T00:08:22;7.30;;;3.05;;
51010;SDS011;37038;50.182;8.624;2022-09-09T00:11:26;9.13;;;2.45;;
51010;SDS011;37038;50.182;8.624;2022-09-09T00:15:14;5.22;;;2.70;;
51010;SDS011;37038;50.182;8.624;2022-09-09T00:21:17;4.78;;;2.63;;
51010;SDS011;37038;50.182;8.624;2022-09-09T00:24:10;4.45;;;2.85;;
51010;SDS011;37038;50.182;8.624;2022-09-09T00:27:30;13.02;;;3.20;;
51010;SDS011;37038;50.182;8.624;2022-09-09T00:30:29;7.88;;;2.42;;
51010;SDS011;37038;50.182;8.624;2022-09-09T00:33:22;7.10;;;2.60;;
51010;SDS011;37038;50.182;8.624;2022-09-09T00:36:13;7.80;;;2.70;;
51010;SDS011;37038;50.182;8.624;2022-09-09T00:39:03;6.47;;;2.35;;
51010;SDS011;37038;50.182;8.624;2022-09-09T00:42:13;9.18;;;2.92;;
51010;SDS011;37038;50.182;8.624;2022-09-09T00:51:58;11.07;;;2.97;;
51010;SDS011;37038;50.182;8.624;2022-09-09T00:55:09;9.60;;;2.70;;
51010;SDS011;37038;50.182;8.624;2022-09-09T00:58:35;8.15;;;3.20;;
51010;SDS011;37038;50.182;8.624;2022-09-09T01:01:22;10.55;;;3.33;;
51010;SDS011;37038;50.182;8.624;2022-09-09T01:04:13;4.70;;;2.80;;
51010;SDS011;37038;50.182;8.624;2022-09-09T01:07:14;4.40;;;2.55;;
51010;SDS011;37038;50.182;8.624;2022-09-09T01:10:07;6.32;;;3.60;;
51010;SDS011;37038;50.182;8.624;2022-09-09T01:13:31;7.53;;;3.80;;
51010;SDS011;37038;50.182;8.624;2022-09-09T01:16:22;6.68;;;2.63;;
51010;SDS011;37038;50.182;8.624;2022-09-09T01:19:10;5.25;;;2.80;;
51010;SDS011;37038;50.182;8.624;2022-09-09T01:28:30;5.78;;;2.58;;
51010;SDS011;37038;50.182;8.624;2022-09-09T01:31:26;5.13;;;2.65;;
51010;SDS011;37038;50.182;8.624;2022-09-09T01:34:22;8.35;;;2.67;;
51010;SDS011;37038;50.182;8.624;2022-09-09T01:37:14;6.18;;;2.63;;
51010;SDS011;37038;50.182;8.624;2022-09-09T01:40:02;4.63;;;2.80;;
51010;SDS011;37038;50.182;8.624;2022-09-09T01:42:50;3.80;;;2.42;;
51010;SDS011;37038;50.182;8.624;2022-09-09T01:45:39;5.32;;;2.45;;
51010;SDS011;37038;50.182;8.624;2022-09-09T01:48:28;5.57;;;2.50;;
51010;SDS011;37038;50.182;8.624;2022-09-09T01:51:17;4.45;;;2.50;;
51010;SDS011;37038;50.182;8.624;2022-09-09T01:54:05;6.20;;;2.53;;
51010;SDS011;37038;50.182;8.624;2022-09-09T01:57:01;4.85;;;2.83;;
51010;SDS011;37038;50.182;8.624;2022-09-09T02:00:11;5.07;;;2.83;;
51010;SDS011;37038;50.182;8.624;2022-09-09T02:06:33;4.25;;;2.42;;
51010;SDS011;37038;50.182;8.624;2022-09-09T02:09:24;6.28;;;2.83;;
51010;SDS011;37038;50.182;8.624;2022-09-09T02:12:18;8.60;;;3.00;;
51010;SDS011;37038;50.182;8.624;2022-09-09T02:15:18;6.40;;;2.90;;
51010;SDS011;37038;50.182;8.624;2022-09-09T02:18:18;6.63;;;3.05;;
51010;SDS011;37038;50.182;8.624;2022-09-09T02:21:14;7.38;;;3.80;;
51010;SDS011;37038;50.182;8.624;2022-09-09T02:24:05;6.22;;;3.13;;
51010;SDS011;37038;50.182;8.624;2022-09-09T02:26:57;9.90;;;3.60;;
51010;SDS011;37038;50.182;8.624;2022-09-09T02:29:48;5.07;;;3.33;;
51010;SDS011;37038;50.182;8.624;2022-09-09T02:32:38;7.82;;;3.30;;
51010;SDS011;37038;50.182;8.624;2022-09-09T02:35:29;7.03;;;3.40;;
51010;SDS011;37038;50.182;8.624;2022-09-09T02:38:20;5.82;;;3.13;;
51010;SDS011;37038;50.182;8.624;2022-09-09T02:41:11;5.85;;;2.60;;
51010;SDS011;37038;50.182;8.624;2022-09-09T02:43:59;5.60;;;3.25;;
51010;SDS011;37038;50.182;8.624;2022-09-09T02:53:09;5.18;;;2.60;;
51010;SDS011;37038;50.182;8.624;2022-09-09T02:56:05;8.70;;;2.90;;
51010;SDS011;37038;50.182;8.624;2022-09-09T02:59:03;5.85;;;2.95;;
51010;SDS011;37038;50.182;8.624;2022-09-09T03:01:51;4.03;;;2.78;;
51010;SDS011;37038;50.182;8.624;2022-09-09T03:04:40;6.82;;;2.72;;
51010;SDS011;37038;50.182;8.624;2022-09-09T03:07:31;5.25;;;2.85;;
51010;SDS011;37038;50.182;8.624;2022-09-09T03:10:19;7.03;;;4.10;;
51010;SDS011;37038;50.182;8.624;2022-09-09T03:13:07;11.45;;;3.55;;
51010;SDS011;37038;50.182;8.624;2022-09-09T03:15:55;9.38;;;3.63;;
51010;SDS011;37038;50.182;8.624;2022-09-09T03:18:42;3.90;;;2.97;;
51010;SDS011;37038;50.182;8.624;2022-09-09T03:21:32;4.07;;;3.10;;
51010;SDS011;37038;50.182;8.624;2022-09-09T03:24:19;8.00;;;3.25;;
51010;SDS011;37038;50.182;8.624;2022-09-09T03:27:08;6.25;;;3.03;;
51010;SDS011;37038;50.182;8.624;2022-09-09T03:29:56;7.95;;;3.65;;
51010;SDS011;37038;50.182;8.624;2022-09-09T03:32:44;4.88;;;3.55;;
51010;SDS011;37038;50.182;8.624;2022-09-09T03:35:35;5.28;;;3.35;;
51010;SDS011;37038;50.182;8.624;2022-09-09T03:38:23;7.65;;;3.60;;
51010;SDS011;37038;50.182;8.624;2022-09-09T03:41:11;7.10;;;3.50;;
51010;SDS011;37038;50.182;8.624;2022-09-09T03:43:59;6.68;;;3.97;;
51010;SDS011;37038;50.182;8.624;2022-09-09T03:46:47;6.82;;;3.90;;
51010;SDS011;37038;50.182;8.624;2022-09-09T03:49:35;10.05;;;4.07;;
51010;SDS011;37038;50.182;8.624;2022-09-09T03:52:23;8.43;;;3.78;;
51010;SDS011;37038;50.182;8.624;2022-09-09T03:55:13;6.88;;;3.97;;
51010;SDS011;37038;50.182;8.624;2022-09-09T03:58:00;8.27;;;3.80;;
51010;SDS011;37038;50.182;8.624;2022-09-09T04:01:02;7.57;;;3.60;;
51010;SDS011;37038;50.182;8.624;2022-09-09T04:03:52;6.53;;;3.58;;
51010;SDS011;37038;50.182;8.624;2022-09-09T04:06:41;10.98;;;3.63;;
51010;SDS011;37038;50.182;8.624;2022-09-09T04:09:29;5.95;;;3.45;;
51010;SDS011;37038;50.182;8.624;2022-09-09T04:12:17;10.88;;;3.75;;
51010;SDS011;37038;50.182;8.624;2022-09-09T04:15:05;9.27;;;3.65;;
51010;SDS011;37038;50.182;8.624;2022-09-09T04:17:53;7.78;;;4.10;;
51010;SDS011;37038;50.182;8.624;2022-09-09T04:20:41;13.73;;;4.45;;
51010;SDS011;37038;50.182;8.624;2022-09-09T04:23:30;6.03;;;3.97;;
51010;SDS011;37038;50.182;8.624;2022-09-09T04:26:18;7.72;;;4.85;;
51010;SDS011;37038;50.182;8.624;2022-09-09T04:29:07;13.45;;;5.57;;
51010;SDS011;37038;50.182;8.624;2022-09-09T04:31:55;7.60;;;5.20;;
51010;SDS011;37038;50.182;8.624;2022-09-09T04:34:43;12.27;;;5.13;;
51010;SDS011;37038;50.182;8.624;2022-09-09T04:37:31;9.38;;;5.60;;
51010;SDS011;37038;50.182;8.624;2022-09-09T04:40:19;10.95;;;6.18;;
51010;SDS011;37038;50.182;8.624;2022-09-09T04:43:09;12.90;;;5.43;;
51010;SDS011;37038;50.182;8.624;2022-09-09T04:46:00;13.07;;;5.13;;
51010;SDS011;37038;50.182;8.624;2022-09-09T04:48:49;10.52;;;5.15;;
51010;SDS011;37038;50.182;8.624;2022-09-09T04:51:37;12.93;;;4.95;;
51010;SDS011;37038;50.182;8.624;2022-09-09T04:54:25;8.20;;;4.13;;
51010;SDS011;37038;50.182;8.624;2022-09-09T04:57:15;9.02;;;5.20;;
51010;SDS011;37038;50.182;8.624;2022-09-09T05:00:05;9.52;;;4.32;;
51010;SDS011;37038;50.182;8.624;2022-09-09T05:02:53;7.50;;;4.50;;
51010;SDS011;37038;50.182;8.624;2022-09-09T05:05:41;8.30;;;3.80;;
51010;SDS011;37038;50.182;8.624;2022-09-09T05:08:29;6.03;;;3.63;;
51010;SDS011;37038;50.182;8.624;2022-09-09T05:14:12;9.88;;;3.72;;
51010;SDS011;37038;50.182;8.624;2022-09-09T05:17:01;7.97;;;3.78;;
51010;SDS011;37038;50.182;8.624;2022-09-09T05:19:49;7.25;;;3.70;;
51010;SDS011;37038;50.182;8.624;2022-09-09T05:22:37;6.75;;;3.50;;
51010;SDS011;37038;50.182;8.624;2022-09-09T05:25:25;10.68;;;4.18;;
51010;SDS011;37038;50.182;8.624;2022-09-09T05:28:13;6.63;;;3.30;;
51010;SDS011;37038;50.182;8.624;2022-09-09T05:31:01;12.73;;;4.35;;
51010;SDS011;37038;50.182;8.624;2022-09-09T05:33:52;7.88;;;3.67;;
51010;SDS011;37038;50.182;8.624;2022-09-09T05:36:40;12.50;;;4.10;;
51010;SDS011;37038;50.182;8.624;2022-09-09T05:39:28;9.85;;;3.78;;
51010;SDS011;37038;50.182;8.624;2022-09-09T05:42:16;8.45;;;4.85;;
51010;SDS011;37038;50.182;8.624;2022-09-09T05:45:04;8.60;;;4.10;;
51010;SDS011;37038;50.182;8.624;2022-09-09T05:47:54;9.30;;;4.57;;
51010;SDS011;37038;50.182;8.624;2022-09-09T05:50:42;9.02;;;4.10;;
51010;SDS011;37038;50.182;8.624;2022-09-09T05:53:32;8.38;;;3.72;;
51010;SDS011;37038;50.182;8.624;2022-09-09T05:56:22;6.22;;;3.15;;
51010;SDS011;37038;50.182;8.624;2022-09-09T05:59:12;9.20;;;3.35;;
51010;SDS011;37038;50.182;8.624;2022-09-09T06:02:01;5.35;;;3.15;;
51010;SDS011;37038;50.182;8.624;2022-09-09T06:04:49;5.65;;;3.53;;
51010;SDS011;37038;50.182;8.624;2022-09-09T06:07:37;7.30;;;3.80;;
51010;SDS011;37038;50.182;8.624;2022-09-09T06:10:29;6.68;;;3.38;;
51010;SDS011;37038;50.182;8.624;2022-09-09T06:13:16;8.23;;;3.58;;
51010;SDS011;37038;50.182;8.624;2022-09-09T06:16:08;10.82;;;3.10;;
51010;SDS011;37038;50.182;8.624;2022-09-09T06:19:03;7.53;;;2.80;;
51010;SDS011;37038;50.182;8.624;2022-09-09T06:21:51;7.05;;;2.88;;
51010;SDS011;37038;50.182;8.624;2022-09-09T06:24:39;8.10;;;2.80;;
51010;SDS011;37038;50.182;8.624;2022-09-09T06:27:27;8.32;;;2.70;;
51010;SDS011;37038;50.182;8.624;2022-09-09T06:30:15;6.32;;;2.78;;
51010;SDS011;37038;50.182;8.624;2022-09-09T06:33:04;7.38;;;3.17;;
51010;SDS011;37038;50.182;8.624;2022-09-09T06:35:52;5.93;;;2.20;;
51010;SDS011;37038;50.182;8.624;2022-09-09T06:38:41;7.05;;;2.67;;
51010;SDS011;37038;50.182;8.624;2022-09-09T06:41:30;4.50;;;2.42;;
51010;SDS011;37038;50.182;8.624;2022-09-09T06:44:19;5.93;;;2.50;;
51010;SDS011;37038;50.182;8.624;2022-09-09T06:47:07;6.90;;;2.83;;
51010;SDS011;37038;50.182;8.624;2022-09-09T06:49:55;5.70;;;2.70;;
51010;SDS011;37038;50.182;8.624;2022-09-09T06:52:45;9.35;;;2.90;;
51010;SDS011;37038;50.182;8.624;2022-09-09T06:55:34;7.25;;;2.45;;
51010;SDS011;37038;50.182;8.624;2022-09-09T06:58:22;5.50;;;2.10;;
51010;SDS011;37038;50.182;8.624;2022-09-09T07:01:14;5.95;;;2.33;;
51010;SDS011;37038;50.182;8.624;2022-09-09T07:04:05;5.97;;;2.20;;
51010;SDS011;37038;50.182;8.624;2022-09-09T07:06:54;4.78;;;2.63;;
51010;SDS011;37038;50.182;8.624;2022-09-09T07:09:42;4.13;;;1.90;;
51010;SDS011;37038;50.182;8.624;2022-09-09T07:12:30;8.15;;;2.20;;
51010;SDS011;37038;50.182;8.624;2022-09-09T07:15:18;3.92;;;2.10;;
51010;SDS011;37038;50.182;8.624;2022-09-09T07:18:06;6.97;;;2.85;;
51010;SDS011;37038;50.182;8.624;2022-09-09T07:20:54;6.07;;;2.38;;
51010;SDS011;37038;50.182;8.624;2022-09-09T07:23:43;6.72;;;2.50;;
51010;SDS011;37038;50.182;8.624;2022-09-09T07:26:31;4.75;;;2.35;;
51010;SDS011;37038;50.182;8.624;2022-09-09T07:29:19;6.18;;;2.35;;
51010;SDS011;37038;50.182;8.624;2022-09-09T07:32:07;7.30;;;2.10;;
51010;SDS011;37038;50.182;8.624;2022-09-09T07:34:55;13.93;;;2.88;;
51010;SDS011;37038;50.182;8.624;2022-09-09T07:37:45;9.45;;;2.30;;
51010;SDS011;37038;50.182;8.624;2022-09-09T07:40:37;9.18;;;2.17;;
51010;SDS011;37038;50.182;8.624;2022-09-09T07:43:25;4.45;;;2.17;;
51010;SDS011;37038;50.182;8.624;2022-09-09T07:46:14;7.15;;;2.00;;
51010;SDS011;37038;50.182;8.624;2022-09-09T07:49:04;8.88;;;2.55;;
51010;SDS011;37038;50.182;8.624;2022-09-09T07:51:52;13.13;;;2.40;;
51010;SDS011;37038;50.182;8.624;2022-09-09T07:54:40;8.93;;;2.30;;
51010;SDS011;37038;50.182;8.624;2022-09-09T07:57:29;6.78;;;2.33;;
51010;SDS011;37038;50.182;8.624;2022-09-09T08:00:17;7.00;;;2.65;;
51010;SDS011;37038;50.182;8.624;2022-09-09T08:03:06;5.88;;;2.45;;
51010;SDS011;37038;50.182;8.624;2022-09-09T08:05:59;7.05;;;2.20;;
51010;SDS011;37038;50.182;8.624;2022-09-09T08:08:49;6.72;;;1.95;;
51010;SDS011;37038;50.182;8.624;2022-09-09T08:11:38;7.30;;;2.10;;
51010;SDS011;37038;50.182;8.624;2022-09-09T08:14:28;7.28;;;2.42;;
51010;SDS011;37038;50.182;8.624;2022-09-09T08:17:16;3.55;;;2.22;;
51010;SDS011;37038;50.182;8.624;2022-09-09T08:20:04;5.22;;;2.10;;
51010;SDS011;37038;50.182;8.624;2022-09-09T08:22:54;4.43;;;2.00;;
51010;SDS011;37038;50.182;8.624;2022-09-09T08:25:43;5.63;;;2.13;;
51010;SDS011;37038;50.182;8.624;2022-09-09T08:28:32;4.82;;;2.22;;
51010;SDS011;37038;50.182;8.624;2022-09-09T08:31:21;6.30;;;2.78;;
51010;SDS011;37038;50.182;8.624;2022-09-09T08:34:17;7.07;;;2.38;;
51010;SDS011;37038;50.182;8.624;2022-09-09T08:37:08;7.15;;;2.95;;
51010;SDS011;37038;50.182;8.624;2022-09-09T08:39:56;6.03;;;2.00;;
51010;SDS011;37038;50.182;8.624;2022-09-09T08:42:48;7.60;;;2.65;;
51010;SDS011;37038;50.182;8.624;2022-09-09T08:45:50;7.22;;;2.55;;
51010;SDS011;37038;50.182;8.624;2022-09-09T08:48:58;6.05;;;2.55;;
51010;SDS011;37038;50.182;8.624;2022-09-09T08:52:22;10.55;;;2.80;;
51010;SDS011;37038;50.182;8.624;2022-09-09T08:55:59;7.40;;;2.75;;
51010;SDS011;37038;50.182;8.624;2022-09-09T08:58:49;7.28;;;3.03;;
51010;SDS011;37038;50.182;8.624;2022-09-09T09:01:44;7.72;;;3.00;;
51010;SDS011;37038;50.182;8.624;2022-09-09T09:04:51;7.20;;;2.97;;
51010;SDS011;37038;50.182;8.624;2022-09-09T09:10:46;8.63;;;2.95;;
51010;SDS011;37038;50.182;8.624;2022-09-09T09:13:52;7.70;;;2.80;;
51010;SDS011;37038;50.182;8.624;2022-09-09T09:19:52;6.57;;;2.90;;
51010;SDS011;37038;50.182;8.624;2022-09-09T09:22:50;9.45;;;2.67;;
51010;SDS011;37038;50.182;8.624;2022-09-09T09:25:39;6.50;;;1.77;;
51010;SDS011;37038;50.182;8.624;2022-09-09T09:28:31;5.53;;;2.20;;
51010;SDS011;37038;50.182;8.624;2022-09-09T09:31:21;7.78;;;2.53;;
51010;SDS011;37038;50.182;8.624;2022-09-09T09:34:10;11.65;;;2.28;;
51010;SDS011;37038;50.182;8.624;2022-09-09T09:37:00;5.88;;;2.30;;
51010;SDS011;37038;50.182;8.624;2022-09-09T09:39:49;11.65;;;2.53;;
51010;SDS011;37038;50.182;8.624;2022-09-09T09:43:01;5.45;;;2.17;;
51010;SDS011;37038;50.182;8.624;2022-09-09T09:45:55;5.25;;;2.10;;
51010;SDS011;37038;50.182;8.624;2022-09-09T09:49:04;7.60;;;2.35;;
51010;SDS011;37038;50.182;8.624;2022-09-09T09:51:59;8.27;;;2.53;;
51010;SDS011;37038;50.182;8.624;2022-09-09T09:54:49;7.18;;;2.20;;
51010;SDS011;37038;50.182;8.624;2022-09-09T09:57:39;5.53;;;2.53;;
51010;SDS011;37038;50.182;8.624;2022-09-09T10:00:27;18.33;;;3.00;;
51010;SDS011;37038;50.182;8.624;2022-09-09T10:03:22;19.90;;;3.88;;
51010;SDS011;37038;50.182;8.624;2022-09-09T10:06:13;13.25;;;3.22;;
51010;SDS011;37038;50.182;8.624;2022-09-09T10:09:01;12.60;;;3.70;;
51010;SDS011;37038;50.182;8.624;2022-09-09T10:15:58;13.30;;;4.28;;
51010;SDS011;37038;50.182;8.624;2022-09-09T10:19:07;17.27;;;5.65;;
51010;SDS011;37038;50.182;8.624;2022-09-09T10:35:34;8.90;;;4.75;;
51010;SDS011;37038;50.182;8.624;2022-09-09T10:45:00;10.95;;;5.35;;
51010;SDS011;37038;50.182;8.624;2022-09-09T10:48:12;9.07;;;5.38;;
51010;SDS011;37038;50.182;8.624;2022-09-09T10:51:17;11.35;;;5.80;;
51010;SDS011;37038;50.182;8.624;2022-09-09T10:57:36;17.35;;;6.78;;
51010;SDS011;37038;50.182;8.624;2022-09-09T11:00:39;10.75;;;5.20;;
51010;SDS011;37038;50.182;8.624;2022-09-09T11:03:32;13.27;;;5.07;;
51010;SDS011;37038;50.182;8.624;2022-09-09T11:06:23;9.02;;;4.55;;
51010;SDS011;37038;50.182;8.624;2022-09-09T11:09:27;9.48;;;5.63;;
51010;SDS011;37038;50.182;8.624;2022-09-09T11:12:23;8.47;;;4.10;;
51010;SDS011;37038;50.182;8.624;2022-09-09T11:15:15;13.38;;;4.47;;
51010;SDS011;37038;50.182;8.624;2022-09-09T11:18:19;16.00;;;5.07;;
51010;SDS011;37038;50.182;8.624;2022-09-09T11:21:13;9.30;;;4.40;;
51010;SDS011;37038;50.182;8.624;2022-09-09T11:24:25;9.80;;;4.03;;
51010;SDS011;37038;50.182;8.624;2022-09-09T11:27:26;9.40;;;3.70;;
51010;SDS011;37038;50.182;8.624;2022-09-09T11:34:08;13.75;;;4.47;;
51010;SDS011;37038;50.182;8.624;2022-09-09T11:37:32;6.38;;;1.73;;
51010;SDS011;37038;50.182;8.624;2022-09-09T11:40:59;2.17;;;1.10;;
51010;SDS011;37038;50.182;8.624;2022-09-09T11:43:54;5.15;;;1.65;;
51010;SDS011;37038;50.182;8.624;2022-09-09T11:46:42;3.17;;;1.70;;
51010;SDS011;37038;50.182;8.624;2022-09-09T11:49:40;4.30;;;1.60;;
51010;SDS011;37038;50.182;8.624;2022-09-09T11:52:39;6.57;;;2.10;;
51010;SDS011;37038;50.182;8.624;2022-09-09T11:55:33;6.05;;;2.50;;
51010;SDS011;37038;50.182;8.624;2022-09-09T11:58:23;5.28;;;2.13;;
51010;SDS011;37038;50.182;8.624;2022-09-09T12:01:15;6.97;;;2.00;;
51010;SDS011;37038;50.182;8.624;2022-09-09T12:04:16;7.15;;;2.00;;
51010;SDS011;37038;50.182;8.624;2022-09-09T12:07:25;5.65;;;1.80;;
51010;SDS011;37038;50.182;8.624;2022-09-09T12:10:34;11.45;;;2.25;;
51010;SDS011;37038;50.182;8.624;2022-09-09T12:13:26;5.45;;;1.75;;
51010;SDS011;37038;50.182;8.624;2022-09-09T12:16:31;6.22;;;1.45;;
51010;SDS011;37038;50.182;8.624;2022-09-09T12:19:24;3.63;;;1.70;;
51010;SDS011;37038;50.182;8.624;2022-09-09T12:22:26;6.53;;;1.77;;
51010;SDS011;37038;50.182;8.624;2022-09-09T12:31:39;4.72;;;1.65;;
51010;SDS011;37038;50.182;8.624;2022-09-09T12:35:03;4.70;;;1.67;;
51010;SDS011;37038;50.182;8.624;2022-09-09T12:37:59;4.63;;;1.88;;
51010;SDS011;37038;50.182;8.624;2022-09-09T12:40:56;4.43;;;1.60;;
51010;SDS011;37038;50.182;8.624;2022-09-09T12:43:44;4.93;;;1.55;;
51010;SDS011;37038;50.182;8.624;2022-09-09T12:46:34;9.35;;;1.90;;
51010;SDS011;37038;50.182;8.624;2022-09-09T12:52:27;2.97;;;0.98;;
51010;SDS011;37038;50.182;8.624;2022-09-09T12:55:24;4.55;;;1.10;;
51010;SDS011;37038;50.182;8.624;2022-09-09T12:58:17;3.90;;;1.35;;
51010;SDS011;37038;50.182;8.624;2022-09-09T13:01:17;4.03;;;1.10;;
51010;SDS011;37038;50.182;8.624;2022-09-09T13:04:19;9.05;;;1.20;;
51010;SDS011;37038;50.182;8.624;2022-09-09T13:07:09;2.42;;;1.00;;
51010;SDS011;37038;50.182;8.624;2022-09-09T13:09:59;5.45;;;1.70;;
51010;SDS011;37038;50.182;8.624;2022-09-09T13:12:49;3.45;;;1.60;;
51010;SDS011;37038;50.182;8.624;2022-09-09T13:15:37;8.73;;;1.67;;
51010;SDS011;37038;50.182;8.624;2022-09-09T13:18:27;6.10;;;1.80;;
51010;SDS011;37038;50.182;8.624;2022-09-09T13:21:30;6.28;;;1.83;;
51010;SDS011;37038;50.182;8.624;2022-09-09T13:24:33;3.67;;;1.25;;
51010;SDS011;37038;50.182;8.624;2022-09-09T13:33:21;3.80;;;1.40;;
51010;SDS011;37038;50.182;8.624;2022-09-09T13:36:10;7.55;;;1.58;;
51010;SDS011;37038;50.182;8.624;2022-09-09T13:39:02;3.05;;;1.58;;
51010;SDS011;37038;50.182;8.624;2022-09-09T13:41:50;4.38;;;1.88;;
51010;SDS011;37038;50.182;8.624;2022-09-09T13:44:40;4.18;;;1.40;;
51010;SDS011;37038;50.182;8.624;2022-09-09T13:47:30;4.00;;;1.38;;
51010;SDS011;37038;50.182;8.624;2022-09-09T13:50:25;3.47;;;1.17;;
51010;SDS011;37038;50.182;8.624;2022-09-09T13:53:15;7.80;;;1.58;;
51010;SDS011;37038;50.182;8.624;2022-09-09T13:56:03;3.53;;;1.05;;
51010;SDS011;37038;50.182;8.624;2022-09-09T13:58:52;3.25;;;1.17;;
51010;SDS011;37038;50.182;8.624;2022-09-09T14:01:40;2.53;;;1.08;;
51010;SDS011;37038;50.182;8.624;2022-09-09T14:04:28;3.15;;;0.80;;
51010;SDS011;37038;50.182;8.624;2022-09-09T14:07:16;2.63;;;1.40;;
51010;SDS011;37038;50.182;8.624;2022-09-09T14:10:05;3.13;;;0.80;;
51010;SDS011;37038;50.182;8.624;2022-09-09T14:12:54;2.28;;;0.65;;
51010;SDS011;37038;50.182;8.624;2022-09-09T14:15:41;2.50;;;1.10;;
51010;SDS011;37038;50.182;8.624;2022-09-09T14:18:29;5.85;;;1.00;;
51010;SDS011;37038;50.182;8.624;2022-09-09T14:21:17;4.05;;;1.33;;
51010;SDS011;37038;50.182;8.624;2022-09-09T14:24:05;7.90;;;1.30;;
51010;SDS011;37038;50.182;8.624;2022-09-09T14:26:53;1.92;;;0.68;;
51010;SDS011;37038;50.182;8.624;2022-09-09T14:29:41;2.75;;;0.55;;
51010;SDS011;37038;50.182;8.624;2022-09-09T14:32:31;3.50;;;0.90;;
51010;SDS011;37038;50.182;8.624;2022-09-09T14:35:19;2.55;;;0.52;;
51010;SDS011;37038;50.182;8.624;2022-09-09T14:38:08;3.75;;;0.88;;
51010;SDS011;37038;50.182;8.624;2022-09-09T14:40:56;2.33;;;0.85;;
51010;SDS011;37038;50.182;8.624;2022-09-09T14:43:45;2.67;;;0.70;;
51010;SDS011;37038;50.182;8.624;2022-09-09T14:46:33;4.90;;;1.35;;
51010;SDS011;37038;50.182;8.624;2022-09-09T14:49:21;2.00;;;0.80;;
51010;SDS011;37038;50.182;8.624;2022-09-09T14:52:09;2.55;;;1.40;;
51010;SDS011;37038;50.182;8.624;2022-09-09T14:54:57;4.93;;;1.05;;
51010;SDS011;37038;50.182;8.624;2022-09-09T14:57:44;3.50;;;1.13;;
51010;SDS011;37038;50.182;8.624;2022-09-09T15:00:33;4.28;;;1.27;;
51010;SDS011;37038;50.182;8.624;2022-09-09T15:03:21;5.05;;;1.48;;
51010;SDS011;37038;50.182;8.624;2022-09-09T15:06:13;2.20;;;0.95;;
51010;SDS011;37038;50.182;8.624;2022-09-09T15:09:01;5.25;;;1.30;;
51010;SDS011;37038;50.182;8.624;2022-09-09T15:11:49;5.13;;;1.48;;
51010;SDS011;37038;50.182;8.624;2022-09-09T15:14:37;4.88;;;1.00;;
51010;SDS011;37038;50.182;8.624;2022-09-09T15:17:25;4.22;;;1.05;;
51010;SDS011;37038;50.182;8.624;2022-09-09T15:20:14;5.25;;;1.33;;
51010;SDS011;37038;50.182;8.624;2022-09-09T15:23:03;4.88;;;1.02;;
51010;SDS011;37038;50.182;8.624;2022-09-09T15:25:52;2.33;;;1.10;;
51010;SDS011;37038;50.182;8.624;2022-09-09T15:28:42;4.72;;;1.42;;
51010;SDS011;37038;50.182;8.624;2022-09-09T15:31:31;4.05;;;1.27;;
51010;SDS011;37038;50.182;8.624;2022-09-09T15:34:19;4.03;;;1.33;;
51010;SDS011;37038;50.182;8.624;2022-09-09T15:37:09;1.52;;;0.68;;
51010;SDS011;37038;50.182;8.624;2022-09-09T15:40:00;7.20;;;1.42;;
51010;SDS011;37038;50.182;8.624;2022-09-09T15:42:48;4.15;;;1.10;;
51010;SDS011;37038;50.182;8.624;2022-09-09T15:45:36;6.28;;;1.23;;
51010;SDS011;37038;50.182;8.624;2022-09-09T15:48:29;3.13;;;0.90;;
51010;SDS011;37038;50.182;8.624;2022-09-09T15:51:21;5.47;;;1.55;;
51010;SDS011;37038;50.182;8.624;2022-09-09T15:54:31;3.67;;;1.13;;
51010;SDS011;37038;50.182;8.624;2022-09-09T15:57:25;5.80;;;1.20;;
51010;SDS011;37038;50.182;8.624;2022-09-09T16:00:14;5.80;;;1.40;;
51010;SDS011;37038;50.182;8.624;2022-09-09T16:03:02;4.57;;;1.80;;
51010;SDS011;37038;50.182;8.624;2022-09-09T16:05:50;3.25;;;1.00;;
51010;SDS011;37038;50.182;8.624;2022-09-09T16:08:39;7.32;;;1.40;;
51010;SDS011;37038;50.182;8.624;2022-09-09T16:11:31;5.70;;;1.10;;
51010;SDS011;37038;50.182;8.624;2022-09-09T16:14:22;4.50;;;1.58;;
51010;SDS011;37038;50.182;8.624;2022-09-09T16:17:12;5.68;;;1.33;;
51010;SDS011;37038;50.182;8.624;2022-09-09T16:20:01;2.92;;;1.73;;
51010;SDS011;37038;50.182;8.624;2022-09-09T16:22:49;3.88;;;1.33;;
51010;SDS011;37038;50.182;8.624;2022-09-09T16:25:38;4.50;;;1.15;;
51010;SDS011;37038;50.182;8.624;2022-09-09T16:28:26;4.82;;;1.10;;
51010;SDS011;37038;50.182;8.624;2022-09-09T16:31:16;4.05;;;1.20;;
51010;SDS011;37038;50.182;8.624;2022-09-09T16:34:08;3.53;;;1.65;;
51010;SDS011;37038;50.182;8.624;2022-09-09T16:36:57;5.07;;;1.70;;
51010;SDS011;37038;50.182;8.624;2022-09-09T16:39:44;4.18;;;1.33;;
51010;SDS011;37038;50.182;8.624;2022-09-09T16:42:33;2.97;;;1.65;;
51010;SDS011;37038;50.182;8.624;2022-09-09T16:45:25;6.82;;;2.42;;
51010;SDS011;37038;50.182;8.624;2022-09-09T16:48:13;5.00;;;1.60;;
51010;SDS011;37038;50.182;8.624;2022-09-09T16:51:08;7.65;;;1.88;;
51010;SDS011;37038;50.182;8.624;2022-09-09T16:54:03;3.63;;;1.20;;
51010;SDS011;37038;50.182;8.624;2022-09-09T16:56:54;2.95;;;1.40;;
51010;SDS011;37038;50.182;8.624;2022-09-09T16:59:41;3.45;;;1.25;;
51010;SDS011;37038;50.182;8.624;2022-09-09T17:02:29;2.88;;;1.27;;
51010;SDS011;37038;50.182;8.624;2022-09-09T17:05:17;2.67;;;1.48;;
51010;SDS011;37038;50.182;8.624;2022-09-09T17:08:05;4.28;;;1.42;;
51010;SDS011;37038;50.182;8.624;2022-09-09T17:10:53;2.17;;;1.20;;
51010;SDS011;37038;50.182;8.624;2022-09-09T17:13:41;4.95;;;1.55;;
51010;SDS011;37038;50.182;8.624;2022-09-09T17:16:31;4.03;;;1.20;;
51010;SDS011;37038;50.182;8.624;2022-09-09T17:19:21;2.22;;;0.93;;
51010;SDS011;37038;50.182;8.624;2022-09-09T17:22:09;3.80;;;1.33;;
51010;SDS011;37038;50.182;8.624;2022-09-09T17:25:03;3.25;;;0.95;;
51010;SDS011;37038;50.182;8.624;2022-09-09T17:27:52;2.42;;;1.30;;
51010;SDS011;37038;50.182;8.624;2022-09-09T17:30:40;3.22;;;1.10;;
51010;SDS011;37038;50.182;8.624;2022-09-09T17:33:28;4.18;;;1.08;;
51010;SDS011;37038;50.182;8.624;2022-09-09T17:36:27;1.85;;;0.90;;
51010;SDS011;37038;50.182;8.624;2022-09-09T17:39:18;5.38;;;1.30;;
51010;SDS011;37038;50.182;8.624;2022-09-09T17:42:06;3.08;;;1.10;;
51010;SDS011;37038;50.182;8.624;2022-09-09T17:44:55;3.65;;;1.35;;
51010;SDS011;37038;50.182;8.624;2022-09-09T17:47:43;2.95;;;1.05;;
51010;SDS011;37038;50.182;8.624;2022-09-09T17:50:31;5.28;;;1.25;;
51010;SDS011;37038;50.182;8.624;2022-09-09T17:53:20;2.28;;;1.30;;
51010;SDS011;37038;50.182;8.624;2022-09-09T17:56:09;2.35;;;1.17;;
51010;SDS011;37038;50.182;8.624;2022-09-09T17:59:00;2.63;;;0.98;;
51010;SDS011;37038;50.182;8.624;2022-09-09T18:01:49;6.03;;;1.50;;
51010;SDS011;37038;50.182;8.624;2022-09-09T18:04:37;1.98;;;1.30;;
51010;SDS011;37038;50.182;8.624;2022-09-09T18:07:25;2.17;;;1.15;;
51010;SDS011;37038;50.182;8.624;2022-09-09T18:10:13;2.58;;;0.95;;
51010;SDS011;37038;50.182;8.624;2022-09-09T18:13:01;1.17;;;0.82;;
51010;SDS011;37038;50.182;8.624;2022-09-09T18:15:49;3.28;;;1.15;;
51010;SDS011;37038;50.182;8.624;2022-09-09T18:18:36;5.95;;;1.48;;
51010;SDS011;37038;50.182;8.624;2022-09-09T18:21:24;3.42;;;1.10;;
51010;SDS011;37038;50.182;8.624;2022-09-09T18:24:14;0.80;;;0.80;;
51010;SDS011;37038;50.182;8.624;2022-09-09T18:27:04;3.13;;;0.90;;
51010;SDS011;37038;50.182;8.624;2022-09-09T18:29:52;2.90;;;0.90;;
51010;SDS011;37038;50.182;8.624;2022-09-09T18:32:40;2.55;;;0.80;;
51010;SDS011;37038;50.182;8.624;2022-09-09T18:35:28;0.95;;;0.82;;
51010;SDS011;37038;50.182;8.624;2022-09-09T18:38:16;2.42;;;1.08;;
51010;SDS011;37038;50.182;8.624;2022-09-09T18:41:13;2.35;;;1.13;;